• Join FlightAware (Why Join?)
  • Login
  • US Flag 
11:09PM EDT


 

Airport Tracker/Info


-or-


 

Live Flight TrackerFlight Track Log ✈ N924AK ✈ 02-May-2013 ✈ KMDW - KTEB

Flight Track Log - Related Links

Times and Time Zones

All times are in EDT time to prevent confusion due to time zone crossing. See the N924AK flight status page for this flight to view local times or setup timezone preferences in your user account.

Time Position Orientation Groundspeed Altitude Reporting Facility
EDT Latitude Longitude Course Direction KTS MPH feet Rate Location/Type
11:57PM 41.8000 -87.7167 86° East 171 197 2,400  Level Chicago TRACON
11:59PM 41.8064 -87.5867 86° East 226 260 5,900 2,640 Climbing Chicago Center
12:00AM 41.8111 -87.4872 86° East 261 300 9,300 3,240 Climbing Chicago Center
12:01AM 41.8139 -87.3589 88° East 291 335 12,500 2,700 Climbing Chicago Center
12:02AM 41.7944 -87.2461 103° East 308 354 14,900 2,340 Climbing Chicago Center
12:03AM 41.7797 -87.1219 99° East 337 388 17,300 2,160 Climbing Chicago Center
12:04AM 41.7861 -86.9925 86° East 349 402 19,300 1,980 Climbing Chicago Center
12:05AM 41.7922 -86.8575 86° East 362 417 21,300 1,680 Climbing Chicago Center
12:06AM 41.7992 -86.7131 86° East 388 447 22,800 1,440 Climbing Chicago Center
12:07AM 41.8061 -86.5706 86° East 408 470 24,300 1,560 Climbing Chicago Center
12:08AM 41.8128 -86.4142 87° East 419 482 26,000 1,680 Climbing Chicago Center
12:09AM 41.8192 -86.2567 87° East 424 488 27,800 1,740 Climbing Chicago Center
12:10AM 41.8253 -86.0997 87° East 423 487 29,600 1,740 Climbing Chicago Center
12:11AM 41.8325 -85.9433 86° East 421 484 31,400 1,620 Climbing Chicago Center
12:12AM 41.8381 -85.7875 87° East 419 482 32,900 1,440 Climbing Chicago Center
12:13AM 41.8453 -85.6294 86° East 421 484 34,400 1,560 Climbing Chicago Center
12:14AM 41.8436 -85.4700 91° East 424 488 36,100 1,680 Climbing Chicago Center
12:15AM 41.8417 -85.3167 91° East 412 474 37,900 1,380 Climbing Chicago Center
12:16AM 41.8378 -85.1719 92° East 386 444 39,000 540 Climbing Chicago Center
12:17AM 41.8322 -85.0231 93° East 400 460 39,000  Level Cleveland Center
12:18AM 41.8250 -84.8833 94° East 406 467 39,000  Level Cleveland Center
12:19AM 41.8144 -84.7208 95° East 418 481 39,000  Level Cleveland Center
12:20AM 41.8036 -84.5531 95° East 437 503 39,000  Level Cleveland Center
12:21AM 41.7947 -84.3853 94° East 448 516 39,000  Level Cleveland Center
12:22AM 41.7792 -84.2200 97° East 448 516 39,000  Level Cleveland Center
12:23AM 41.7678 -84.0522 95° East 448 516 39,000 240 Level Cleveland Center
12:24AM 41.7581 -83.8847 94° East 448 516 39,500 720 Climbing Cleveland Center
12:25AM 41.7461 -83.7197 95° East 448 516 40,500 720 Climbing Cleveland Center
12:26AM 41.7336 -83.5606 96° East 443 510 41,000 240 Climbing Cleveland Center
12:27AM 41.7231 -83.3986 95° East 438 504 41,000  Level Cleveland Center
12:28AM 41.7125 -83.2369 95° East 438 504 41,000  Level Cleveland Center
12:29AM 41.7014 -83.0750 95° East 438 504 41,000  Level Cleveland Center
12:30AM 41.6883 -82.9106 96° East 438 504 41,000  Level Cleveland Center
12:31AM 41.6747 -82.7461 96° East 444 511 41,000  Level Cleveland Center
12:32AM 41.6631 -82.5817 95° East 444 511 41,000  Level Cleveland Center
12:33AM 41.6514 -82.4200 95° East 444 511 41,000  Level Cleveland Center
12:34AM 41.6394 -82.2392 95° East 444 511 41,000  Level Cleveland Center
12:35AM 41.6272 -82.0775 96° East 444 511 41,000  Level Cleveland Center
12:36AM 41.6144 -81.9164 96° East 439 505 41,000  Level Cleveland Center
12:37AM 41.5997 -81.7550 97° East 439 505 41,000  Level Cleveland Center
12:38AM 41.5867 -81.5908 96° East 444 511 41,000  Level Cleveland Center
12:39AM 41.5731 -81.4464 97° East 444 511 41,000  Level Cleveland Center
12:40AM 41.5597 -81.2853 96° East 444 511 41,000  Level Cleveland Center
12:41AM 41.5439 -81.1186 97° East 444 511 41,000  Level Cleveland Center
12:42AM 41.5300 -80.9575 97° East 444 511 41,000  Level Cleveland Center
12:43AM 41.5136 -80.7939 98° East 444 511 41,000  Level Cleveland Center
12:44AM 41.4972 -80.6164 97° East 444 511 41,000  Level Cleveland Center
12:45AM 41.4825 -80.4500 97° East 444 511 41,000  Level Cleveland Center
12:46AM 41.4697 -80.2867 96° East 451 519 41,000 -180 Level Cleveland Center
12:47AM 41.4525 -80.1261 98° East 446 513 40,700 -600 Descending Cleveland Center
12:48AM 41.4331 -79.9628 99° East 446 513 39,800 -900 Descending Cleveland Center
12:49AM 41.4175 -79.7967 97° East 446 513 38,900 -900 Descending Cleveland Center
12:50AM 41.3994 -79.6308 98° East 446 513 38,000 -960 Descending Cleveland Center
12:51AM 41.3853 -79.4567 96° East 451 519 37,000 -1,020 Descending Cleveland Center
12:52AM 41.3650 -79.2911 99° East 456 525 36,000 -900 Descending Cleveland Center
12:53AM 41.3483 -79.1256 98° East 456 525 35,200 -900 Descending Cleveland Center
12:54AM 41.3294 -78.9572 98° East 461 531 34,200 -960 Descending Cleveland Center
12:55AM 41.3122 -78.7889 98° East 461 531 33,300 -360 Descending Cleveland Center
12:57AM 41.2669 -78.3844 98° East 469 540 33,000 -120 Descending New York Center
12:58AM 41.2464 -78.2139 99° East 469 540 33,000  Level New York Center
12:59AM 41.2261 -78.0378 99° East 469 540 33,000  Level New York Center
01:00AM 41.2050 -77.8669 99° East 469 540 33,000  Level New York Center
01:01AM 41.1839 -77.6994 99° East 469 540 33,000  Level New York Center
01:02AM 41.1644 -77.5292 99° East 469 540 33,000  Level New York Center
01:03AM 41.1406 -77.3586 100° East 475 547 33,000  Level New York Center
01:04AM 41.1211 -77.1833 98° East 470 541 33,000 -780 Level New York Center
01:05AM 41.0969 -77.0103 100° East 470 541 31,500 -1,680 Descending New York Center
01:06AM 41.0747 -76.8375 100° East 470 541 29,700 -1,980 Descending New York Center
01:07AM 41.0519 -76.6703 100° East 470 541 27,600 -2,160 Descending New York Center
01:08AM 41.0311 -76.4978 99° East 470 541 25,500 -2,040 Descending New York Center
01:09AM 41.0097 -76.3367 100° East 465 535 23,600 -1,800 Descending New York Center
01:10AM 40.9861 -76.1725 101° East 454 522 21,900 -1,800 Descending New York Center
01:11AM 40.9675 -76.0308 100° East 442 509 20,100 -1,920 Descending New York Center
01:12AM 40.9508 -75.8839 98° East 423 487 18,200 -2,040 Descending New York Center
01:13AM 40.9286 -75.7256 100° East 403 464 16,100 -1,980 Descending New York Center
01:14AM 40.9092 -75.5869 100° East 386 444 14,200 -1,800 Descending New York Center
01:15AM 40.8894 -75.4567 101° East 376 433 12,500 -1,620 Descending New York Center
01:16AM 40.8731 -75.3428 101° East 326 375 11,000 -1,440 Descending New York Center
01:17AM 40.8581 -75.2431 101° East 291 335 9,700 -1,020 Descending New York Center
01:18AM 40.8472 -75.1464 98° East 269 310 9,000 -360 Descending New York Center
01:19AM 40.8336 -75.0633 102° East 259 298 9,000  Level New York Center
01:20AM 40.8203 -74.9664 100° East 259 298 9,000 -720 Level New York Center
01:21AM 40.8053 -74.8614 101° East 259 298 7,600 -1,500 Descending New York Center
01:22AM 40.7897 -74.7672 102° East 259 298 6,000 -1,380 Descending New York Center
01:23AM 40.7761 -74.6761 101° East 259 298 4,900 -1,020 Descending New York Center
01:24AM 40.7642 -74.5958 101° East 236 272 4,000 -600 Descending New York Center
01:25AM 40.7500 -74.5500 112° Southeast 226 260 4,100 -420 Climbing New York TRACON
01:26AM 40.7500 -74.4667 90° East 233 268 3,400 -900 Descending New York TRACON
01:27AM 40.7333 -74.3833 105° East 235 270 2,300 -720 Descending New York TRACON
01:28AM 40.7333 -74.3000 90° East 228 262 2,100 -300 Descending New York TRACON
01:29AM 40.7333 -74.2333 90° East 167 192 1,800 -300 Descending New York TRACON
01:30AM 40.7667 -74.1833 49° Northeast 168 193 1,600 -180 Descending New York TRACON
01:31AM 40.8000 -74.1500 37° Northeast 153 176 1,500 -360 Descending New York TRACON
01:32AM 40.8167 -74.1167 57° Northeast 125 144 900 -600 Descending New York TRACON
01:34AM 40.8500 -74.0500 58° Northeast  Level FlightAware Approximate
01:41AM 40.8501 -74.0608 58° Northeast  Level Estimated
01:42AM 40.8501 -74.0608 58° Northeast  Level Estimated